sensor_id;sensor_type;location;lat;lon;timestamp;temperature;humidity
2463;DHT22;1243;54.298;10.172;2023-04-15T00:00:42;7.30;99.90
2463;DHT22;1243;54.298;10.172;2023-04-15T00:03:08;7.30;99.90
2463;DHT22;1243;54.298;10.172;2023-04-15T00:05:33;7.30;99.90
2463;DHT22;1243;54.298;10.172;2023-04-15T00:08:00;7.30;99.90
2463;DHT22;1243;54.298;10.172;2023-04-15T00:10:26;7.40;99.90
2463;DHT22;1243;54.298;10.172;2023-04-15T00:12:52;7.40;99.90
2463;DHT22;1243;54.298;10.172;2023-04-15T00:15:18;7.40;99.90
2463;DHT22;1243;54.298;10.172;2023-04-15T00:17:44;7.40;1.00
2463;DHT22;1243;54.298;10.172;2023-04-15T00:20:10;7.40;1.00
2463;DHT22;1243;54.298;10.172;2023-04-15T00:22:36;7.40;1.00
2463;DHT22;1243;54.298;10.172;2023-04-15T00:25:01;7.40;1.00
2463;DHT22;1243;54.298;10.172;2023-04-15T00:27:27;7.40;1.00
2463;DHT22;1243;54.298;10.172;2023-04-15T00:29:54;7.40;1.00
2463;DHT22;1243;54.298;10.172;2023-04-15T00:32:20;7.40;1.00
2463;DHT22;1243;54.298;10.172;2023-04-15T00:34:46;7.40;1.00
2463;DHT22;1243;54.298;10.172;2023-04-15T00:37:12;7.40;1.00
2463;DHT22;1243;54.298;10.172;2023-04-15T00:39:37;7.40;1.00
2463;DHT22;1243;54.298;10.172;2023-04-15T00:42:04;7.50;1.00
2463;DHT22;1243;54.298;10.172;2023-04-15T00:44:30;7.50;1.00
2463;DHT22;1243;54.298;10.172;2023-04-15T00:46:57;7.50;1.00
2463;DHT22;1243;54.298;10.172;2023-04-15T00:49:23;7.50;1.00
2463;DHT22;1243;54.298;10.172;2023-04-15T00:51:49;7.50;1.00
2463;DHT22;1243;54.298;10.172;2023-04-15T00:54:15;7.50;1.00
2463;DHT22;1243;54.298;10.172;2023-04-15T00:56:41;7.50;1.00
2463;DHT22;1243;54.298;10.172;2023-04-15T00:59:08;7.50;1.00
2463;DHT22;1243;54.298;10.172;2023-04-15T01:01:35;7.50;1.00
2463;DHT22;1243;54.298;10.172;2023-04-15T01:04:01;7.50;1.00
2463;DHT22;1243;54.298;10.172;2023-04-15T01:06:27;7.50;1.00
2463;DHT22;1243;54.298;10.172;2023-04-15T01:08:54;7.50;1.00
2463;DHT22;1243;54.298;10.172;2023-04-15T01:11:20;7.50;1.00
2463;DHT22;1243;54.298;10.172;2023-04-15T01:13:48;7.50;1.00
2463;DHT22;1243;54.298;10.172;2023-04-15T01:16:14;7.50;1.00
2463;DHT22;1243;54.298;10.172;2023-04-15T01:18:41;7.50;1.00
2463;DHT22;1243;54.298;10.172;2023-04-15T01:21:06;7.60;1.00
2463;DHT22;1243;54.298;10.172;2023-04-15T01:23:35;7.60;1.00
2463;DHT22;1243;54.298;10.172;2023-04-15T01:26:03;7.60;1.00
2463;DHT22;1243;54.298;10.172;2023-04-15T01:28:30;7.60;1.00
2463;DHT22;1243;54.298;10.172;2023-04-15T01:31:07;7.60;1.00
2463;DHT22;1243;54.298;10.172;2023-04-15T01:33:33;7.60;1.00
2463;DHT22;1243;54.298;10.172;2023-04-15T01:35:59;7.60;1.00
2463;DHT22;1243;54.298;10.172;2023-04-15T01:38:26;7.60;1.00
2463;DHT22;1243;54.298;10.172;2023-04-15T01:40:52;7.60;1.00
2463;DHT22;1243;54.298;10.172;2023-04-15T01:43:18;7.60;1.00
2463;DHT22;1243;54.298;10.172;2023-04-15T01:45:44;7.50;1.00
2463;DHT22;1243;54.298;10.172;2023-04-15T01:48:10;7.50;1.00
2463;DHT22;1243;54.298;10.172;2023-04-15T01:50:36;7.60;1.00
2463;DHT22;1243;54.298;10.172;2023-04-15T01:53:03;7.60;1.00
2463;DHT22;1243;54.298;10.172;2023-04-15T01:55:28;7.60;1.00
2463;DHT22;1243;54.298;10.172;2023-04-15T01:57:55;7.60;1.00
2463;DHT22;1243;54.298;10.172;2023-04-15T02:00:21;7.60;1.00
2463;DHT22;1243;54.298;10.172;2023-04-15T02:02:47;7.60;1.00
2463;DHT22;1243;54.298;10.172;2023-04-15T02:05:14;7.60;1.00
2463;DHT22;1243;54.298;10.172;2023-04-15T02:07:44;7.60;1.00
2463;DHT22;1243;54.298;10.172;2023-04-15T02:10:10;7.70;1.00
2463;DHT22;1243;54.298;10.172;2023-04-15T02:12:37;7.70;1.00
2463;DHT22;1243;54.298;10.172;2023-04-15T02:15:03;7.70;1.00
2463;DHT22;1243;54.298;10.172;2023-04-15T02:17:29;7.70;1.00
2463;DHT22;1243;54.298;10.172;2023-04-15T02:19:59;7.70;1.00
2463;DHT22;1243;54.298;10.172;2023-04-15T02:22:25;7.70;1.00
2463;DHT22;1243;54.298;10.172;2023-04-15T02:24:51;7.80;1.00
2463;DHT22;1243;54.298;10.172;2023-04-15T02:27:17;7.80;1.00
2463;DHT22;1243;54.298;10.172;2023-04-15T02:29:45;7.80;1.00
2463;DHT22;1243;54.298;10.172;2023-04-15T02:32:12;7.80;1.00
2463;DHT22;1243;54.298;10.172;2023-04-15T02:34:40;7.80;1.00
2463;DHT22;1243;54.298;10.172;2023-04-15T02:37:11;7.80;1.00
2463;DHT22;1243;54.298;10.172;2023-04-15T02:39:37;7.80;1.00
2463;DHT22;1243;54.298;10.172;2023-04-15T02:42:03;7.70;1.00
2463;DHT22;1243;54.298;10.172;2023-04-15T02:44:31;7.70;1.00
2463;DHT22;1243;54.298;10.172;2023-04-15T02:46:57;7.70;1.00
2463;DHT22;1243;54.298;10.172;2023-04-15T02:49:24;7.70;1.00
2463;DHT22;1243;54.298;10.172;2023-04-15T02:51:50;7.70;1.00
2463;DHT22;1243;54.298;10.172;2023-04-15T02:54:19;7.70;1.00
2463;DHT22;1243;54.298;10.172;2023-04-15T02:56:45;7.70;1.00
2463;DHT22;1243;54.298;10.172;2023-04-15T02:59:11;7.70;1.00
2463;DHT22;1243;54.298;10.172;2023-04-15T03:01:37;7.70;1.00
2463;DHT22;1243;54.298;10.172;2023-04-15T03:04:03;7.70;1.00
2463;DHT22;1243;54.298;10.172;2023-04-15T03:06:29;7.70;1.00
2463;DHT22;1243;54.298;10.172;2023-04-15T03:08:55;7.70;1.00
2463;DHT22;1243;54.298;10.172;2023-04-15T03:11:21;7.70;1.00
2463;DHT22;1243;54.298;10.172;2023-04-15T03:13:47;7.70;1.00
2463;DHT22;1243;54.298;10.172;2023-04-15T03:16:13;7.70;1.00
2463;DHT22;1243;54.298;10.172;2023-04-15T03:18:39;7.70;1.00
2463;DHT22;1243;54.298;10.172;2023-04-15T03:21:05;7.70;1.00
2463;DHT22;1243;54.298;10.172;2023-04-15T03:23:31;7.70;1.00
2463;DHT22;1243;54.298;10.172;2023-04-15T03:25:56;7.80;1.00
2463;DHT22;1243;54.298;10.172;2023-04-15T03:28:23;7.80;1.00
2463;DHT22;1243;54.298;10.172;2023-04-15T03:30:49;7.80;1.00
2463;DHT22;1243;54.298;10.172;2023-04-15T03:33:15;7.70;1.00
2463;DHT22;1243;54.298;10.172;2023-04-15T03:35:40;7.70;1.00
2463;DHT22;1243;54.298;10.172;2023-04-15T03:38:06;7.70;1.00
2463;DHT22;1243;54.298;10.172;2023-04-15T03:40:32;7.80;1.00
2463;DHT22;1243;54.298;10.172;2023-04-15T03:42:57;7.80;1.00
2463;DHT22;1243;54.298;10.172;2023-04-15T03:45:24;7.80;1.00
2463;DHT22;1243;54.298;10.172;2023-04-15T03:47:50;7.80;1.00
2463;DHT22;1243;54.298;10.172;2023-04-15T03:50:16;7.80;1.00
2463;DHT22;1243;54.298;10.172;2023-04-15T03:52:42;7.80;1.00
2463;DHT22;1243;54.298;10.172;2023-04-15T03:55:08;7.80;1.00
2463;DHT22;1243;54.298;10.172;2023-04-15T03:57:34;7.80;1.00
2463;DHT22;1243;54.298;10.172;2023-04-15T04:00:04;7.80;1.00
2463;DHT22;1243;54.298;10.172;2023-04-15T04:02:30;7.80;1.00
2463;DHT22;1243;54.298;10.172;2023-04-15T04:04:56;7.80;1.00
2463;DHT22;1243;54.298;10.172;2023-04-15T04:07:22;7.80;1.00
2463;DHT22;1243;54.298;10.172;2023-04-15T04:09:49;7.80;1.00
2463;DHT22;1243;54.298;10.172;2023-04-15T04:12:14;7.80;1.00
2463;DHT22;1243;54.298;10.172;2023-04-15T04:14:40;7.80;1.00
2463;DHT22;1243;54.298;10.172;2023-04-15T04:17:06;7.80;1.00
2463;DHT22;1243;54.298;10.172;2023-04-15T04:19:32;7.80;1.00
2463;DHT22;1243;54.298;10.172;2023-04-15T04:21:58;7.80;1.00
2463;DHT22;1243;54.298;10.172;2023-04-15T04:24:23;7.80;1.00
2463;DHT22;1243;54.298;10.172;2023-04-15T04:26:49;7.80;1.00
2463;DHT22;1243;54.298;10.172;2023-04-15T04:29:15;7.80;1.00
2463;DHT22;1243;54.298;10.172;2023-04-15T04:31:41;7.80;1.00
2463;DHT22;1243;54.298;10.172;2023-04-15T04:34:06;7.90;1.00
2463;DHT22;1243;54.298;10.172;2023-04-15T04:36:32;7.90;1.00
2463;DHT22;1243;54.298;10.172;2023-04-15T04:38:58;7.90;1.00
2463;DHT22;1243;54.298;10.172;2023-04-15T04:41:24;7.90;1.00
2463;DHT22;1243;54.298;10.172;2023-04-15T04:43:49;7.90;1.00
2463;DHT22;1243;54.298;10.172;2023-04-15T04:46:15;7.90;1.00
2463;DHT22;1243;54.298;10.172;2023-04-15T04:48:41;7.90;1.00
2463;DHT22;1243;54.298;10.172;2023-04-15T04:51:07;7.90;1.00
2463;DHT22;1243;54.298;10.172;2023-04-15T04:53:34;7.90;1.00
2463;DHT22;1243;54.298;10.172;2023-04-15T04:56:02;7.90;1.00
2463;DHT22;1243;54.298;10.172;2023-04-15T04:58:27;7.90;1.00
2463;DHT22;1243;54.298;10.172;2023-04-15T05:00:53;7.90;1.00
2463;DHT22;1243;54.298;10.172;2023-04-15T05:03:19;7.90;1.00
2463;DHT22;1243;54.298;10.172;2023-04-15T05:05:45;7.90;1.00
2463;DHT22;1243;54.298;10.172;2023-04-15T05:08:11;7.90;1.00
2463;DHT22;1243;54.298;10.172;2023-04-15T05:10:37;7.90;1.00
2463;DHT22;1243;54.298;10.172;2023-04-15T05:13:02;8.00;1.00
2463;DHT22;1243;54.298;10.172;2023-04-15T05:15:28;8.00;1.00
2463;DHT22;1243;54.298;10.172;2023-04-15T05:17:54;8.00;1.00
2463;DHT22;1243;54.298;10.172;2023-04-15T05:20:19;8.00;1.00
2463;DHT22;1243;54.298;10.172;2023-04-15T05:22:45;8.00;1.00
2463;DHT22;1243;54.298;10.172;2023-04-15T05:25:11;8.00;1.00
2463;DHT22;1243;54.298;10.172;2023-04-15T05:27:37;8.00;1.00
2463;DHT22;1243;54.298;10.172;2023-04-15T05:30:03;8.00;1.00
2463;DHT22;1243;54.298;10.172;2023-04-15T05:32:28;7.90;1.00
2463;DHT22;1243;54.298;10.172;2023-04-15T05:34:54;8.00;1.00
2463;DHT22;1243;54.298;10.172;2023-04-15T05:37:20;8.00;1.00
2463;DHT22;1243;54.298;10.172;2023-04-15T05:39:46;8.00;1.00
2463;DHT22;1243;54.298;10.172;2023-04-15T05:42:13;8.00;1.00
2463;DHT22;1243;54.298;10.172;2023-04-15T05:44:38;8.00;1.00
2463;DHT22;1243;54.298;10.172;2023-04-15T05:47:04;8.00;1.00
2463;DHT22;1243;54.298;10.172;2023-04-15T05:49:31;8.10;1.00
2463;DHT22;1243;54.298;10.172;2023-04-15T05:51:57;8.10;1.00
2463;DHT22;1243;54.298;10.172;2023-04-15T05:54:22;8.10;1.00
2463;DHT22;1243;54.298;10.172;2023-04-15T05:56:48;8.10;1.00
2463;DHT22;1243;54.298;10.172;2023-04-15T05:59:14;8.10;1.00
2463;DHT22;1243;54.298;10.172;2023-04-15T06:01:40;8.10;1.00
2463;DHT22;1243;54.298;10.172;2023-04-15T06:04:05;8.10;1.00
2463;DHT22;1243;54.298;10.172;2023-04-15T06:06:31;8.20;1.00
2463;DHT22;1243;54.298;10.172;2023-04-15T06:08:57;8.20;1.00
2463;DHT22;1243;54.298;10.172;2023-04-15T06:11:23;8.20;1.00
2463;DHT22;1243;54.298;10.172;2023-04-15T06:13:49;8.20;1.00
2463;DHT22;1243;54.298;10.172;2023-04-15T06:16:14;8.20;1.00
2463;DHT22;1243;54.298;10.172;2023-04-15T06:18:40;8.20;1.00
2463;DHT22;1243;54.298;10.172;2023-04-15T06:21:06;8.20;1.00
2463;DHT22;1243;54.298;10.172;2023-04-15T06:23:35;8.20;1.00
2463;DHT22;1243;54.298;10.172;2023-04-15T06:26:01;8.20;1.00
2463;DHT22;1243;54.298;10.172;2023-04-15T06:28:27;8.20;1.00
2463;DHT22;1243;54.298;10.172;2023-04-15T06:30:53;8.30;1.00
2463;DHT22;1243;54.298;10.172;2023-04-15T06:33:19;8.20;1.00
2463;DHT22;1243;54.298;10.172;2023-04-15T06:35:45;8.20;1.00
2463;DHT22;1243;54.298;10.172;2023-04-15T06:38:11;8.30;1.00
2463;DHT22;1243;54.298;10.172;2023-04-15T06:40:37;8.30;1.00
2463;DHT22;1243;54.298;10.172;2023-04-15T06:43:03;8.30;1.00
2463;DHT22;1243;54.298;10.172;2023-04-15T06:45:29;8.20;1.00
2463;DHT22;1243;54.298;10.172;2023-04-15T06:47:55;8.30;1.00
2463;DHT22;1243;54.298;10.172;2023-04-15T06:50:21;8.30;1.00
2463;DHT22;1243;54.298;10.172;2023-04-15T06:52:47;8.30;1.00
2463;DHT22;1243;54.298;10.172;2023-04-15T06:55:13;8.30;1.00
2463;DHT22;1243;54.298;10.172;2023-04-15T06:57:39;8.30;1.00
2463;DHT22;1243;54.298;10.172;2023-04-15T07:00:05;8.30;1.00
2463;DHT22;1243;54.298;10.172;2023-04-15T07:02:32;8.30;1.00
2463;DHT22;1243;54.298;10.172;2023-04-15T07:04:57;8.30;1.00
2463;DHT22;1243;54.298;10.172;2023-04-15T07:07:23;8.40;1.00
2463;DHT22;1243;54.298;10.172;2023-04-15T07:09:50;8.30;1.00
2463;DHT22;1243;54.298;10.172;2023-04-15T07:12:16;8.30;1.00
2463;DHT22;1243;54.298;10.172;2023-04-15T07:14:42;8.30;1.00
2463;DHT22;1243;54.298;10.172;2023-04-15T07:17:08;8.40;1.00
2463;DHT22;1243;54.298;10.172;2023-04-15T07:19:34;8.40;1.00
2463;DHT22;1243;54.298;10.172;2023-04-15T07:22:00;8.40;1.00
2463;DHT22;1243;54.298;10.172;2023-04-15T07:24:26;8.40;1.00
2463;DHT22;1243;54.298;10.172;2023-04-15T07:26:54;8.40;1.00
2463;DHT22;1243;54.298;10.172;2023-04-15T07:29:24;8.40;1.00
2463;DHT22;1243;54.298;10.172;2023-04-15T07:31:49;8.40;1.00
2463;DHT22;1243;54.298;10.172;2023-04-15T07:34:15;8.30;1.00
2463;DHT22;1243;54.298;10.172;2023-04-15T07:36:41;8.40;1.00
2463;DHT22;1243;54.298;10.172;2023-04-15T07:39:07;8.40;1.00
2463;DHT22;1243;54.298;10.172;2023-04-15T07:41:33;8.50;1.00
2463;DHT22;1243;54.298;10.172;2023-04-15T07:43:59;8.40;1.00
2463;DHT22;1243;54.298;10.172;2023-04-15T07:46:25;8.50;1.00
2463;DHT22;1243;54.298;10.172;2023-04-15T07:48:52;8.50;1.00
2463;DHT22;1243;54.298;10.172;2023-04-15T07:51:19;8.50;1.00
2463;DHT22;1243;54.298;10.172;2023-04-15T07:53:46;8.50;1.00
2463;DHT22;1243;54.298;10.172;2023-04-15T07:56:12;8.50;1.00
2463;DHT22;1243;54.298;10.172;2023-04-15T07:58:38;8.70;1.00
2463;DHT22;1243;54.298;10.172;2023-04-15T08:01:04;8.70;1.00
2463;DHT22;1243;54.298;10.172;2023-04-15T08:03:30;8.80;1.00
2463;DHT22;1243;54.298;10.172;2023-04-15T08:05:57;8.90;1.00
2463;DHT22;1243;54.298;10.172;2023-04-15T08:08:23;8.90;1.00
2463;DHT22;1243;54.298;10.172;2023-04-15T08:10:49;8.90;1.00
2463;DHT22;1243;54.298;10.172;2023-04-15T08:13:16;8.90;1.00
2463;DHT22;1243;54.298;10.172;2023-04-15T08:15:41;8.90;1.00
2463;DHT22;1243;54.298;10.172;2023-04-15T08:18:07;8.90;1.00
2463;DHT22;1243;54.298;10.172;2023-04-15T08:20:33;8.90;1.00
2463;DHT22;1243;54.298;10.172;2023-04-15T08:22:59;8.80;1.00
2463;DHT22;1243;54.298;10.172;2023-04-15T08:25:25;8.80;1.00
2463;DHT22;1243;54.298;10.172;2023-04-15T08:27:54;8.90;1.00
2463;DHT22;1243;54.298;10.172;2023-04-15T08:30:19;9.00;1.00
2463;DHT22;1243;54.298;10.172;2023-04-15T08:32:46;9.00;1.00
2463;DHT22;1243;54.298;10.172;2023-04-15T08:35:12;9.10;1.00
2463;DHT22;1243;54.298;10.172;2023-04-15T08:37:38;9.10;1.00
2463;DHT22;1243;54.298;10.172;2023-04-15T08:40:04;9.10;1.00
2463;DHT22;1243;54.298;10.172;2023-04-15T08:42:31;9.20;1.00
2463;DHT22;1243;54.298;10.172;2023-04-15T08:45:03;9.20;1.00
2463;DHT22;1243;54.298;10.172;2023-04-15T08:47:30;9.30;1.00
2463;DHT22;1243;54.298;10.172;2023-04-15T08:49:59;9.20;1.00
2463;DHT22;1243;54.298;10.172;2023-04-15T08:52:30;9.30;1.00
2463;DHT22;1243;54.298;10.172;2023-04-15T08:54:56;9.30;1.00
2463;DHT22;1243;54.298;10.172;2023-04-15T08:57:26;9.20;1.00
2463;DHT22;1243;54.298;10.172;2023-04-15T08:59:55;9.20;1.00
2463;DHT22;1243;54.298;10.172;2023-04-15T09:02:23;9.20;1.00
2463;DHT22;1243;54.298;10.172;2023-04-15T09:04:48;9.30;1.00
2463;DHT22;1243;54.298;10.172;2023-04-15T09:07:14;9.30;1.00
2463;DHT22;1243;54.298;10.172;2023-04-15T09:09:40;9.30;1.00
2463;DHT22;1243;54.298;10.172;2023-04-15T09:12:07;9.30;1.00
2463;DHT22;1243;54.298;10.172;2023-04-15T09:14:33;9.40;1.00
2463;DHT22;1243;54.298;10.172;2023-04-15T09:17:01;9.50;1.00
2463;DHT22;1243;54.298;10.172;2023-04-15T09:19:27;9.70;1.00
2463;DHT22;1243;54.298;10.172;2023-04-15T09:21:56;9.70;1.00
2463;DHT22;1243;54.298;10.172;2023-04-15T09:24:22;9.90;1.00
2463;DHT22;1243;54.298;10.172;2023-04-15T09:26:51;10.00;1.00
2463;DHT22;1243;54.298;10.172;2023-04-15T09:29:18;10.20;1.00
2463;DHT22;1243;54.298;10.172;2023-04-15T09:31:44;10.40;1.00
2463;DHT22;1243;54.298;10.172;2023-04-15T09:34:10;10.50;1.00
2463;DHT22;1243;54.298;10.172;2023-04-15T09:39:12;10.80;1.00
2463;DHT22;1243;54.298;10.172;2023-04-15T09:41:39;10.80;1.00
2463;DHT22;1243;54.298;10.172;2023-04-15T09:44:05;11.20;1.00
2463;DHT22;1243;54.298;10.172;2023-04-15T09:49:21;11.70;1.00
2463;DHT22;1243;54.298;10.172;2023-04-15T09:51:47;11.80;1.00
2463;DHT22;1243;54.298;10.172;2023-04-15T09:54:18;11.90;1.00
2463;DHT22;1243;54.298;10.172;2023-04-15T09:56:45;12.00;1.00
2463;DHT22;1243;54.298;10.172;2023-04-15T09:59:11;11.90;99.90
2463;DHT22;1243;54.298;10.172;2023-04-15T10:01:37;11.90;99.90
2463;DHT22;1243;54.298;10.172;2023-04-15T10:04:04;11.80;99.90
2463;DHT22;1243;54.298;10.172;2023-04-15T10:06:31;12.00;99.90
2463;DHT22;1243;54.298;10.172;2023-04-15T10:08:58;11.90;99.90
2463;DHT22;1243;54.298;10.172;2023-04-15T10:11:25;12.10;99.90
2463;DHT22;1243;54.298;10.172;2023-04-15T10:13:53;12.40;99.90
2463;DHT22;1243;54.298;10.172;2023-04-15T10:16:20;12.60;99.90
2463;DHT22;1243;54.298;10.172;2023-04-15T10:18:54;12.50;99.90
2463;DHT22;1243;54.298;10.172;2023-04-15T10:21:20;12.60;99.90
2463;DHT22;1243;54.298;10.172;2023-04-15T10:23:48;12.50;99.90
2463;DHT22;1243;54.298;10.172;2023-04-15T10:26:15;12.40;99.90
2463;DHT22;1243;54.298;10.172;2023-04-15T10:28:45;12.50;99.90
2463;DHT22;1243;54.298;10.172;2023-04-15T10:31:14;12.30;99.90
2463;DHT22;1243;54.298;10.172;2023-04-15T10:33:42;12.30;99.90
2463;DHT22;1243;54.298;10.172;2023-04-15T10:36:09;12.40;99.90
2463;DHT22;1243;54.298;10.172;2023-04-15T10:38:40;12.30;99.90
2463;DHT22;1243;54.298;10.172;2023-04-15T10:41:27;12.20;99.90
2463;DHT22;1243;54.298;10.172;2023-04-15T10:46:35;12.50;99.90
2463;DHT22;1243;54.298;10.172;2023-04-15T10:49:13;13.00;99.90
2463;DHT22;1243;54.298;10.172;2023-04-15T10:51:41;13.30;94.10
2463;DHT22;1243;54.298;10.172;2023-04-15T11:02:41;13.60;1.00
2463;DHT22;1243;54.298;10.172;2023-04-15T11:05:07;14.30;1.00
2463;DHT22;1243;54.298;10.172;2023-04-15T11:10:00;14.40;1.00
2463;DHT22;1243;54.298;10.172;2023-04-15T11:12:34;14.30;1.00
2463;DHT22;1243;54.298;10.172;2023-04-15T11:15:39;14.00;1.00
2463;DHT22;1243;54.298;10.172;2023-04-15T11:20:35;14.70;1.00
2463;DHT22;1243;54.298;10.172;2023-04-15T11:23:01;14.90;1.00
2463;DHT22;1243;54.298;10.172;2023-04-15T11:25:30;15.50;1.00
2463;DHT22;1243;54.298;10.172;2023-04-15T11:27:57;15.50;99.90
2463;DHT22;1243;54.298;10.172;2023-04-15T11:30:25;15.30;99.90
2463;DHT22;1243;54.298;10.172;2023-04-15T11:32:52;15.20;99.90
2463;DHT22;1243;54.298;10.172;2023-04-15T11:35:19;15.30;99.90
2463;DHT22;1243;54.298;10.172;2023-04-15T11:37:45;15.10;99.90
2463;DHT22;1243;54.298;10.172;2023-04-15T11:40:11;14.90;99.90
2463;DHT22;1243;54.298;10.172;2023-04-15T11:42:38;14.20;99.90
2463;DHT22;1243;54.298;10.172;2023-04-15T11:45:12;14.20;99.90
2463;DHT22;1243;54.298;10.172;2023-04-15T11:47:39;14.50;99.90
2463;DHT22;1243;54.298;10.172;2023-04-15T11:50:16;14.60;99.90
2463;DHT22;1243;54.298;10.172;2023-04-15T11:52:56;15.00;99.90
2463;DHT22;1243;54.298;10.172;2023-04-15T11:55:23;15.20;99.90
2463;DHT22;1243;54.298;10.172;2023-04-15T11:58:15;15.60;99.90
2463;DHT22;1243;54.298;10.172;2023-04-15T12:00:46;16.20;99.90
2463;DHT22;1243;54.298;10.172;2023-04-15T12:03:13;16.00;99.90
2463;DHT22;1243;54.298;10.172;2023-04-15T12:06:01;15.90;99.90
2463;DHT22;1243;54.298;10.172;2023-04-15T12:11:16;15.20;99.90
2463;DHT22;1243;54.298;10.172;2023-04-15T12:13:46;15.00;99.90
2463;DHT22;1243;54.298;10.172;2023-04-15T12:16:16;14.60;99.90
2463;DHT22;1243;54.298;10.172;2023-04-15T12:18:47;14.40;99.90
2463;DHT22;1243;54.298;10.172;2023-04-15T12:21:15;14.40;99.90
2463;DHT22;1243;54.298;10.172;2023-04-15T12:23:49;14.20;99.90
2463;DHT22;1243;54.298;10.172;2023-04-15T12:26:16;14.60;99.90
2463;DHT22;1243;54.298;10.172;2023-04-15T12:28:43;14.80;99.90
2463;DHT22;1243;54.298;10.172;2023-04-15T12:31:10;14.90;99.90
2463;DHT22;1243;54.298;10.172;2023-04-15T12:33:36;15.50;99.90
2463;DHT22;1243;54.298;10.172;2023-04-15T12:36:03;15.90;99.90
2463;DHT22;1243;54.298;10.172;2023-04-15T12:38:29;16.30;99.90
2463;DHT22;1243;54.298;10.172;2023-04-15T12:40:57;16.80;99.90
2463;DHT22;1243;54.298;10.172;2023-04-15T12:43:23;16.70;99.90
2463;DHT22;1243;54.298;10.172;2023-04-15T12:45:49;16.40;99.90
2463;DHT22;1243;54.298;10.172;2023-04-15T12:48:18;15.60;99.90
2463;DHT22;1243;54.298;10.172;2023-04-15T12:50:44;15.00;99.90
2463;DHT22;1243;54.298;10.172;2023-04-15T12:53:10;14.80;99.90
2463;DHT22;1243;54.298;10.172;2023-04-15T12:55:37;15.10;99.90
2463;DHT22;1243;54.298;10.172;2023-04-15T12:58:03;15.80;99.90
2463;DHT22;1243;54.298;10.172;2023-04-15T13:00:29;15.80;99.90
2463;DHT22;1243;54.298;10.172;2023-04-15T13:02:55;15.20;99.90
2463;DHT22;1243;54.298;10.172;2023-04-15T13:05:21;14.90;99.90
2463;DHT22;1243;54.298;10.172;2023-04-15T13:07:47;14.70;99.90
2463;DHT22;1243;54.298;10.172;2023-04-15T13:10:12;14.60;99.90
2463;DHT22;1243;54.298;10.172;2023-04-15T13:12:38;14.60;99.90
2463;DHT22;1243;54.298;10.172;2023-04-15T13:15:06;14.60;99.90
2463;DHT22;1243;54.298;10.172;2023-04-15T13:17:33;14.40;99.90
2463;DHT22;1243;54.298;10.172;2023-04-15T13:19:59;14.30;99.90
2463;DHT22;1243;54.298;10.172;2023-04-15T13:22:25;14.50;99.90
2463;DHT22;1243;54.298;10.172;2023-04-15T13:24:51;14.90;99.90
2463;DHT22;1243;54.298;10.172;2023-04-15T13:27:17;15.30;99.90
2463;DHT22;1243;54.298;10.172;2023-04-15T13:29:43;15.30;99.90
2463;DHT22;1243;54.298;10.172;2023-04-15T13:32:09;15.00;97.90
2463;DHT22;1243;54.298;10.172;2023-04-15T13:34:35;14.60;93.70
2463;DHT22;1243;54.298;10.172;2023-04-15T13:37:07;14.50;97.90
2463;DHT22;1243;54.298;10.172;2023-04-15T13:39:33;14.50;99.90
2463;DHT22;1243;54.298;10.172;2023-04-15T13:41:59;14.80;99.90
2463;DHT22;1243;54.298;10.172;2023-04-15T13:44:25;15.40;99.90
2463;DHT22;1243;54.298;10.172;2023-04-15T13:46:52;15.80;99.90
2463;DHT22;1243;54.298;10.172;2023-04-15T13:49:17;15.70;94.30
2463;DHT22;1243;54.298;10.172;2023-04-15T13:51:43;15.30;94.00
2463;DHT22;1243;54.298;10.172;2023-04-15T13:54:09;14.80;93.80
2463;DHT22;1243;54.298;10.172;2023-04-15T13:56:35;14.70;93.80
2463;DHT22;1243;54.298;10.172;2023-04-15T13:59:01;14.80;93.80
2463;DHT22;1243;54.298;10.172;2023-04-15T14:01:28;14.60;93.70
2463;DHT22;1243;54.298;10.172;2023-04-15T14:03:54;14.60;99.90
2463;DHT22;1243;54.298;10.172;2023-04-15T14:06:20;14.30;93.60
2463;DHT22;1243;54.298;10.172;2023-04-15T14:08:46;14.00;95.90
2463;DHT22;1243;54.298;10.172;2023-04-15T14:11:12;13.70;93.40
2463;DHT22;1243;54.298;10.172;2023-04-15T14:13:37;13.50;98.90
2463;DHT22;1243;54.298;10.172;2023-04-15T14:16:03;13.30;99.90
2463;DHT22;1243;54.298;10.172;2023-04-15T14:18:29;13.20;99.90
2463;DHT22;1243;54.298;10.172;2023-04-15T14:20:55;13.20;99.90
2463;DHT22;1243;54.298;10.172;2023-04-15T14:23:22;13.30;99.90
2463;DHT22;1243;54.298;10.172;2023-04-15T14:25:48;13.30;99.90
2463;DHT22;1243;54.298;10.172;2023-04-15T14:28:14;13.20;99.90
2463;DHT22;1243;54.298;10.172;2023-04-15T14:30:40;13.20;99.90
2463;DHT22;1243;54.298;10.172;2023-04-15T14:33:06;13.10;99.90
2463;DHT22;1243;54.298;10.172;2023-04-15T14:35:32;13.00;99.90
2463;DHT22;1243;54.298;10.172;2023-04-15T14:37:57;13.00;99.90
2463;DHT22;1243;54.298;10.172;2023-04-15T14:40:23;13.10;99.90
2463;DHT22;1243;54.298;10.172;2023-04-15T14:42:49;13.00;99.90
2463;DHT22;1243;54.298;10.172;2023-04-15T14:45:15;13.00;99.90
2463;DHT22;1243;54.298;10.172;2023-04-15T14:47:42;13.10;99.90
2463;DHT22;1243;54.298;10.172;2023-04-15T14:50:08;13.10;99.90
2463;DHT22;1243;54.298;10.172;2023-04-15T14:52:34;13.10;99.90
2463;DHT22;1243;54.298;10.172;2023-04-15T14:55:10;13.10;99.90
2463;DHT22;1243;54.298;10.172;2023-04-15T14:57:37;13.20;99.90
2463;DHT22;1243;54.298;10.172;2023-04-15T15:00:04;13.10;99.90
2463;DHT22;1243;54.298;10.172;2023-04-15T15:02:32;13.20;99.90
2463;DHT22;1243;54.298;10.172;2023-04-15T15:04:59;13.00;99.90
2463;DHT22;1243;54.298;10.172;2023-04-15T15:07:25;12.90;99.90
2463;DHT22;1243;54.298;10.172;2023-04-15T15:09:52;12.90;99.90
2463;DHT22;1243;54.298;10.172;2023-04-15T15:12:18;12.90;99.90
2463;DHT22;1243;54.298;10.172;2023-04-15T15:14:43;12.90;99.90
2463;DHT22;1243;54.298;10.172;2023-04-15T15:17:09;13.00;99.90
2463;DHT22;1243;54.298;10.172;2023-04-15T15:19:35;12.90;99.90
2463;DHT22;1243;54.298;10.172;2023-04-15T15:22:02;13.00;99.90
2463;DHT22;1243;54.298;10.172;2023-04-15T15:24:28;13.00;99.90
2463;DHT22;1243;54.298;10.172;2023-04-15T15:26:54;12.90;99.90
2463;DHT22;1243;54.298;10.172;2023-04-15T15:29:21;12.80;99.90
2463;DHT22;1243;54.298;10.172;2023-04-15T15:31:48;12.80;99.90
2463;DHT22;1243;54.298;10.172;2023-04-15T15:34:15;12.80;99.90
2463;DHT22;1243;54.298;10.172;2023-04-15T15:36:43;12.80;99.90
2463;DHT22;1243;54.298;10.172;2023-04-15T15:39:09;12.60;99.90
2463;DHT22;1243;54.298;10.172;2023-04-15T15:41:35;12.50;99.90
2463;DHT22;1243;54.298;10.172;2023-04-15T15:44:01;12.50;99.90
2463;DHT22;1243;54.298;10.172;2023-04-15T15:46:27;12.50;99.90
2463;DHT22;1243;54.298;10.172;2023-04-15T15:48:56;12.30;99.90
2463;DHT22;1243;54.298;10.172;2023-04-15T15:51:22;12.20;99.90
2463;DHT22;1243;54.298;10.172;2023-04-15T15:53:47;12.20;99.90
2463;DHT22;1243;54.298;10.172;2023-04-15T15:56:13;12.30;99.90
2463;DHT22;1243;54.298;10.172;2023-04-15T15:58:40;12.30;99.90
2463;DHT22;1243;54.298;10.172;2023-04-15T16:01:08;12.40;99.90
2463;DHT22;1243;54.298;10.172;2023-04-15T16:03:33;12.30;99.90
2463;DHT22;1243;54.298;10.172;2023-04-15T16:05:59;12.30;99.90
2463;DHT22;1243;54.298;10.172;2023-04-15T16:08:25;12.40;99.90
2463;DHT22;1243;54.298;10.172;2023-04-15T16:10:51;12.20;99.90
2463;DHT22;1243;54.298;10.172;2023-04-15T16:13:17;11.90;99.90
2463;DHT22;1243;54.298;10.172;2023-04-15T16:15:43;11.80;99.90
2463;DHT22;1243;54.298;10.172;2023-04-15T16:18:08;11.80;99.90
2463;DHT22;1243;54.298;10.172;2023-04-15T16:20:34;11.90;99.90
2463;DHT22;1243;54.298;10.172;2023-04-15T16:23:07;11.90;99.90
2463;DHT22;1243;54.298;10.172;2023-04-15T16:25:35;11.80;99.90